WUK53JG EGGW-LHDC
Flight info
| Callsign | WUK53JG |
|---|---|
| Flight time | N/A |
| Altitude | 37000 |
| Route | MATCH Q295 BRAIN M197 REDFA DCT TACHA DCT RKN DCT KUMER DCT OMELO DCT ODLIV DCT OMIFU DCT PITOK DCT PERIT |
| Aircraft | A21N/M-SDE1E2E3FGIJ1J4RWXY/LB1 |
Departure
| Time | 2026-04-30 14:22 |
|---|---|
| Airport | London Luton Airport (EGGW) |
Arrival
| Time | N/A |
|---|---|
| Airport | Debrecen International Airport (LHDC) |
| Time | Latitude | Longitude | Altitude | Speed | Heading |
|---|---|---|---|---|---|
| 2026-04-30 13:26 | 51.88155 | -0.37432 | 522 ft | 0 kts | 161° |
| 2026-04-30 13:42 | 51.88156 | -0.37432 | 522 ft | 2 kts | 161° |
| 2026-04-30 13:43 | 51.88158 | -0.37434 | 522 ft | 0 kts | 161° |
| 2026-04-30 13:43 | 51.88161 | -0.37435 | 522 ft | 0 kts | 161° |
| 2026-04-30 13:44 | 51.88159 | -0.37435 | 522 ft | 2 kts | 170° |
| 2026-04-30 13:45 | 51.88206 | -0.37565 | 522 ft | 12 kts | 263° |
| 2026-04-30 13:45 | 51.88164 | -0.37713 | 529 ft | 18 kts | 237° |
| 2026-04-30 13:45 | 51.88077 | -0.37864 | 529 ft | 19 kts | 218° |
| 2026-04-30 13:46 | 51.87968 | -0.37996 | 529 ft | 20 kts | 207° |
| 2026-04-30 13:46 | 51.87832 | -0.37978 | 529 ft | 21 kts | 134° |
| 2026-04-30 13:46 | 51.87762 | -0.37761 | 529 ft | 23 kts | 121° |
| 2026-04-30 13:46 | 51.87684 | -0.37535 | 526 ft | 24 kts | 126° |
| 2026-04-30 13:47 | 51.87592 | -0.37442 | 528 ft | 0 kts | 201° |
| 2026-04-30 13:48 | 51.87568 | -0.37455 | 527 ft | 7 kts | 199° |
| 2026-04-30 13:48 | 51.87521 | -0.37488 | 526 ft | 8 kts | 214° |
| 2026-04-30 13:48 | 51.87496 | -0.37582 | 528 ft | 10 kts | 253° |
| 2026-04-30 13:48 | 51.87466 | -0.37757 | 528 ft | 21 kts | 255° |
| 2026-04-30 13:49 | 51.87426 | -0.37992 | 529 ft | 22 kts | 239° |
| 2026-04-30 13:49 | 51.87291 | -0.38107 | 528 ft | 24 kts | 167° |
| 2026-04-30 13:49 | 51.87263 | -0.38083 | 529 ft | 4 kts | 143° |
| 2026-04-30 13:49 | 51.87259 | -0.38023 | 529 ft | 7 kts | 78° |
| 2026-04-30 13:50 | 51.87282 | -0.37878 | 530 ft | 35 kts | 77° |
| 2026-04-30 13:50 | 51.87047 | -0.36570 | 882 ft | 42 kts | 108° |
| 2026-04-30 13:50 | 51.86981 | -0.36307 | 1119 ft | 15 kts | 111° |
| 2026-04-30 13:51 | 51.88154 | -0.37431 | 1119 ft | 0 kts | 162° |
| 2026-04-30 13:52 | 51.88155 | -0.37432 | 522 ft | 0 kts | 161° |
| 2026-04-30 14:06 | 51.88158 | -0.37433 | 522 ft | 3 kts | 161° |
| 2026-04-30 14:07 | 51.88200 | -0.37450 | 522 ft | 4 kts | 213° |
| 2026-04-30 14:07 | 51.88211 | -0.37421 | 522 ft | 4 kts | 251° |
| 2026-04-30 14:07 | 51.88215 | -0.37399 | 522 ft | 0 kts | 251° |
| 2026-04-30 14:09 | 51.88204 | -0.37464 | 522 ft | 7 kts | 269° |
| 2026-04-30 14:10 | 51.88211 | -0.37555 | 522 ft | 9 kts | 270° |
| 2026-04-30 14:10 | 51.88182 | -0.37661 | 527 ft | 12 kts | 242° |
| 2026-04-30 14:10 | 51.88131 | -0.37784 | 529 ft | 14 kts | 227° |
| 2026-04-30 14:10 | 51.88052 | -0.37892 | 529 ft | 16 kts | 217° |
| 2026-04-30 14:11 | 51.87960 | -0.38000 | 529 ft | 17 kts | 202° |
| 2026-04-30 14:11 | 51.87842 | -0.37986 | 529 ft | 18 kts | 146° |
| 2026-04-30 14:11 | 51.87772 | -0.37808 | 529 ft | 20 kts | 114° |
| 2026-04-30 14:11 | 51.87710 | -0.37605 | 524 ft | 21 kts | 106° |
| 2026-04-30 14:12 | 51.87657 | -0.37486 | 527 ft | 0 kts | 151° |
| 2026-04-30 14:14 | 51.87656 | -0.37485 | 527 ft | 1 kts | 151° |
| 2026-04-30 14:14 | 51.87629 | -0.37468 | 528 ft | 6 kts | 164° |
| 2026-04-30 14:14 | 51.87583 | -0.37458 | 528 ft | 7 kts | 180° |
| 2026-04-30 14:15 | 51.87531 | -0.37485 | 527 ft | 9 kts | 217° |
| 2026-04-30 14:15 | 51.87498 | -0.37577 | 528 ft | 11 kts | 252° |
| 2026-04-30 14:15 | 51.87475 | -0.37703 | 529 ft | 13 kts | 255° |
| 2026-04-30 14:15 | 51.87450 | -0.37847 | 528 ft | 14 kts | 255° |
| 2026-04-30 14:16 | 51.87417 | -0.38006 | 529 ft | 16 kts | 233° |
| 2026-04-30 14:16 | 51.87364 | -0.38071 | 528 ft | 0 kts | 206° |
| 2026-04-30 14:21 | 51.87362 | -0.38072 | 528 ft | 4 kts | 206° |
| 2026-04-30 14:21 | 51.87314 | -0.38110 | 527 ft | 9 kts | 204° |
| 2026-04-30 14:21 | 51.87283 | -0.37878 | 530 ft | 42 kts | 72° |
| 2026-04-30 14:22 | 51.87437 | -0.36980 | 528 ft | 129 kts | 74° |
| 2026-04-30 14:22 | 51.88111 | -0.33352 | 2466 ft | 183 kts | 78° |
| 2026-04-30 14:22 | 51.88494 | -0.31338 | 3191 ft | 187 kts | 80° |
| 2026-04-30 14:23 | 51.89131 | -0.27064 | 3864 ft | 218 kts | 81° |
| 2026-04-30 14:23 | 51.89735 | -0.21828 | 4925 ft | 248 kts | 101° |
| 2026-04-30 14:24 | 51.88086 | -0.17092 | 6503 ft | 251 kts | 144° |
| 2026-04-30 14:24 | 51.86503 | -0.15882 | 7311 ft | 256 kts | 165° |
| 2026-04-30 14:25 | 51.83020 | -0.14367 | 8956 ft | 263 kts | 162° |
| 2026-04-30 14:25 | 51.79452 | -0.12704 | 10593 ft | 273 kts | 160° |
| 2026-04-30 14:26 | 51.76276 | -0.08919 | 11294 ft | 307 kts | 122° |
| 2026-04-30 14:26 | 51.75519 | -0.05644 | 11918 ft | 318 kts | 101° |
| 2026-04-30 14:26 | 51.75890 | 0.01603 | 13347 ft | 330 kts | 84° |
| 2026-04-30 14:27 | 51.76243 | 0.05299 | 14084 ft | 335 kts | 85° |
| 2026-04-30 14:27 | 51.76582 | 0.09033 | 14755 ft | 338 kts | 85° |
| 2026-04-30 14:27 | 51.76905 | 0.12764 | 15404 ft | 342 kts | 85° |
| 2026-04-30 14:28 | 51.77545 | 0.20469 | 16728 ft | 350 kts | 86° |
| 2026-04-30 14:28 | 51.77859 | 0.24347 | 17365 ft | 354 kts | 85° |
| 2026-04-30 14:28 | 51.78181 | 0.28313 | 18022 ft | 358 kts | 85° |
| 2026-04-30 14:28 | 51.78505 | 0.32316 | 18650 ft | 362 kts | 86° |
| 2026-04-30 14:29 | 51.79156 | 0.40457 | 19837 ft | 367 kts | 86° |
| 2026-04-30 14:29 | 51.79811 | 0.48684 | 21019 ft | 371 kts | 86° |
| 2026-04-30 14:30 | 51.80031 | 0.51473 | 21425 ft | 372 kts | 86° |
| 2026-04-30 14:31 | 51.80162 | 0.53137 | 21656 ft | 373 kts | 86° |
| 2026-04-30 14:31 | 51.80816 | 0.61492 | 22797 ft | 377 kts | 86° |
| 2026-04-30 14:31 | 51.81199 | 0.65699 | 23336 ft | 381 kts | 81° |
| 2026-04-30 14:32 | 51.82467 | 0.74095 | 24306 ft | 387 kts | 79° |
| 2026-04-30 14:32 | 51.83127 | 0.78327 | 24749 ft | 390 kts | 79° |
| 2026-04-30 14:32 | 51.83820 | 0.82586 | 25180 ft | 393 kts | 77° |
| 2026-04-30 14:33 | 51.84592 | 0.86843 | 25608 ft | 396 kts | 77° |
| 2026-04-30 14:33 | 51.86163 | 0.95426 | 26431 ft | 401 kts | 77° |
| 2026-04-30 14:33 | 51.86951 | 0.99764 | 26823 ft | 403 kts | 77° |
| 2026-04-30 14:34 | 51.87743 | 1.04132 | 27193 ft | 406 kts | 77° |
| 2026-04-30 14:34 | 51.88540 | 1.08535 | 27568 ft | 409 kts | 77° |
| 2026-04-30 14:34 | 51.89336 | 1.12959 | 27947 ft | 411 kts | 77° |
| 2026-04-30 14:34 | 51.90136 | 1.17413 | 28332 ft | 413 kts | 77° |
| 2026-04-30 14:35 | 51.91740 | 1.26407 | 29066 ft | 418 kts | 77° |
| 2026-04-30 14:35 | 51.92547 | 1.30938 | 29412 ft | 420 kts | 77° |
| 2026-04-30 14:35 | 51.93360 | 1.35496 | 29756 ft | 422 kts | 77° |
| 2026-04-30 14:36 | 51.94164 | 1.40021 | 30089 ft | 424 kts | 77° |
| 2026-04-30 14:36 | 51.94991 | 1.44681 | 30403 ft | 426 kts | 77° |
| 2026-04-30 14:36 | 51.95812 | 1.49319 | 30678 ft | 428 kts | 77° |
| 2026-04-30 14:36 | 51.96633 | 1.53969 | 30946 ft | 430 kts | 77° |
| 2026-04-30 14:37 | 51.97456 | 1.58650 | 31221 ft | 432 kts | 77° |
| 2026-04-30 14:37 | 51.98279 | 1.63340 | 31491 ft | 434 kts | 77° |
| 2026-04-30 14:37 | 51.99098 | 1.68056 | 31759 ft | 435 kts | 78° |
| 2026-04-30 14:37 | 51.99854 | 1.72810 | 32010 ft | 436 kts | 78° |
| 2026-04-30 14:38 | 52.00603 | 1.77592 | 32255 ft | 437 kts | 79° |
| 2026-04-30 14:38 | 52.01351 | 1.82387 | 32490 ft | 439 kts | 79° |
| 2026-04-30 14:38 | 52.02098 | 1.87184 | 32772 ft | 439 kts | 79° |
| 2026-04-30 14:38 | 52.02841 | 1.91982 | 33091 ft | 438 kts | 79° |
| 2026-04-30 14:39 | 52.03578 | 1.96774 | 33375 ft | 437 kts | 78° |
| 2026-04-30 14:39 | 52.04303 | 2.01491 | 33652 ft | 436 kts | 78° |
| 2026-04-30 14:39 | 52.05035 | 2.06262 | 33940 ft | 435 kts | 78° |
| 2026-04-30 14:40 | 52.06492 | 2.15794 | 34442 ft | 434 kts | 79° |
| 2026-04-30 14:40 | 52.07213 | 2.20553 | 34648 ft | 434 kts | 79° |
| 2026-04-30 14:40 | 52.07932 | 2.25315 | 34843 ft | 434 kts | 79° |
| 2026-04-30 14:40 | 52.08652 | 2.30075 | 35034 ft | 434 kts | 79° |
| 2026-04-30 14:41 | 52.09311 | 2.34851 | 35203 ft | 432 kts | 84° |
| 2026-04-30 14:41 | 52.09542 | 2.39712 | 35367 ft | 430 kts | 90° |
| 2026-04-30 14:41 | 52.09642 | 2.44571 | 35533 ft | 430 kts | 90° |
| 2026-04-30 14:41 | 52.09735 | 2.49431 | 35716 ft | 430 kts | 90° |
| 2026-04-30 14:42 | 52.09843 | 2.54275 | 35902 ft | 429 kts | 90° |
| 2026-04-30 14:42 | 52.09962 | 2.59126 | 36072 ft | 429 kts | 89° |
| 2026-04-30 14:42 | 52.10083 | 2.63968 | 36232 ft | 429 kts | 89° |
| 2026-04-30 14:42 | 52.10205 | 2.68824 | 36397 ft | 429 kts | 89° |
| 2026-04-30 14:43 | 52.10325 | 2.73669 | 36556 ft | 429 kts | 89° |
| 2026-04-30 14:43 | 52.10442 | 2.78512 | 36722 ft | 429 kts | 89° |
| 2026-04-30 14:43 | 52.10559 | 2.83357 | 36872 ft | 428 kts | 90° |
| 2026-04-30 14:43 | 52.10673 | 2.88192 | 37020 ft | 428 kts | 90° |
| 2026-04-30 14:44 | 52.10785 | 2.93039 | 37164 ft | 428 kts | 90° |
| 2026-04-30 14:44 | 52.10895 | 2.97877 | 37306 ft | 428 kts | 89° |
| 2026-04-30 14:44 | 52.11109 | 3.07552 | 37337 ft | 427 kts | 89° |
| 2026-04-30 14:45 | 52.11311 | 3.17194 | 37325 ft | 427 kts | 89° |
| 2026-04-30 14:45 | 52.11506 | 3.26848 | 37309 ft | 427 kts | 90° |
| 2026-04-30 14:46 | 52.11698 | 3.36559 | 37313 ft | 433 kts | 90° |
| 2026-04-30 14:46 | 52.11884 | 3.46332 | 37322 ft | 437 kts | 89° |
| 2026-04-30 14:47 | 52.12061 | 3.56327 | 37315 ft | 440 kts | 89° |
| 2026-04-30 14:47 | 52.12229 | 3.66302 | 37323 ft | 442 kts | 89° |
| 2026-04-30 14:48 | 52.12392 | 3.76239 | 37323 ft | 443 kts | 89° |
| 2026-04-30 14:48 | 52.12545 | 3.86266 | 37306 ft | 443 kts | 89° |
| 2026-04-30 14:49 | 52.12688 | 3.96272 | 37319 ft | 439 kts | 89° |
| 2026-04-30 14:49 | 52.12824 | 4.06127 | 37324 ft | 435 kts | 89° |
| 2026-04-30 14:50 | 52.13010 | 4.20901 | 37331 ft | 436 kts | 89° |
| 2026-04-30 14:51 | 52.13178 | 4.35563 | 37343 ft | 436 kts | 90° |
| 2026-04-30 14:52 | 52.13328 | 4.50322 | 37346 ft | 434 kts | 90° |
| 2026-04-30 14:52 | 52.13457 | 4.65079 | 37353 ft | 434 kts | 90° |
| 2026-04-30 14:53 | 52.13570 | 4.79823 | 37350 ft | 434 kts | 90° |
| 2026-04-30 14:54 | 52.13694 | 4.99488 | 37357 ft | 432 kts | 90° |
| 2026-04-30 14:55 | 52.13762 | 5.14190 | 37370 ft | 432 kts | 90° |
| 2026-04-30 14:56 | 52.13823 | 5.33811 | 37370 ft | 434 kts | 90° |
| 2026-04-30 14:57 | 52.13853 | 5.48518 | 37375 ft | 432 kts | 89° |
| 2026-04-30 14:58 | 52.13860 | 5.67899 | 37371 ft | 428 kts | 90° |
| 2026-04-30 14:58 | 52.13848 | 5.82428 | 37383 ft | 429 kts | 90° |
| 2026-04-30 15:00 | 52.13775 | 6.06628 | 37387 ft | 429 kts | 89° |
| 2026-04-30 15:01 | 52.13688 | 6.26019 | 37394 ft | 427 kts | 89° |
| 2026-04-30 15:01 | 52.13603 | 6.40546 | 37423 ft | 428 kts | 89° |
| 2026-04-30 15:02 | 52.13546 | 6.48596 | 37423 ft | 428 kts | 89° |
| 2026-04-30 15:03 | 52.13349 | 6.72792 | 37424 ft | 428 kts | 90° |
| 2026-04-30 15:04 | 52.12539 | 6.82388 | 37412 ft | 431 kts | 101° |
| 2026-04-30 15:04 | 52.10549 | 6.96639 | 37423 ft | 432 kts | 101° |
| 2026-04-30 15:06 | 52.07246 | 7.20453 | 37427 ft | 431 kts | 100° |
| 2026-04-30 15:07 | 52.04574 | 7.39467 | 37438 ft | 431 kts | 101° |
| 2026-04-30 15:08 | 52.01874 | 7.58414 | 37430 ft | 432 kts | 101° |
| 2026-04-30 15:09 | 51.98449 | 7.82155 | 37435 ft | 432 kts | 101° |
| 2026-04-30 15:10 | 51.95666 | 8.01155 | 37445 ft | 433 kts | 101° |
| 2026-04-30 15:11 | 51.91434 | 8.29639 | 37450 ft | 433 kts | 101° |
| 2026-04-30 15:13 | 51.87857 | 8.53318 | 37448 ft | 433 kts | 101° |
| 2026-04-30 15:14 | 51.82765 | 8.86422 | 37455 ft | 434 kts | 101° |
| 2026-04-30 15:17 | 51.76075 | 9.28922 | 37462 ft | 434 kts | 101° |
| 2026-04-30 15:19 | 51.69993 | 9.66628 | 37458 ft | 434 kts | 101° |